createdAt,value
2022-09-09T00:01:01.392Z,99836.97
2022-09-09T00:04:04.143Z,99842.38
2022-09-09T00:06:45.302Z,99841.50
2022-09-09T00:09:22.167Z,99841.38
2022-09-09T00:11:59.538Z,99843.53
2022-09-09T00:14:56.161Z,99849.66
2022-09-09T00:17:44.222Z,99846.34
2022-09-09T00:20:36.594Z,99848.53
2022-09-09T00:23:37.708Z,99838.22
2022-09-09T00:26:18.733Z,99851.03
2022-09-09T00:29:09.575Z,99842.03
2022-09-09T00:31:40.565Z,99851.38
2022-09-09T00:34:22.621Z,99848.75
2022-09-09T00:36:53.316Z,99847.66
2022-09-09T00:39:42.875Z,99845.22
2022-09-09T00:42:27.640Z,99852.25
2022-09-09T00:49:05.398Z,99860.75
2022-09-09T00:51:54.901Z,99845.44
2022-09-09T00:54:44.167Z,99839.41
2022-09-09T00:57:29.680Z,99844.66
2022-09-09T01:00:25.618Z,99837.44
2022-09-09T01:03:49.216Z,99848.06
2022-09-09T01:06:32.454Z,99849.41
2022-09-09T01:09:19.430Z,99845.25
2022-09-09T01:12:28.007Z,99852.81
2022-09-09T01:15:13.764Z,99857.63
2022-09-09T01:18:02.444Z,99859.38
2022-09-09T01:20:58.468Z,99859.16
2022-09-09T01:24:08.583Z,99882.38
2022-09-09T01:26:55.992Z,99879.22
2022-09-09T01:29:27.109Z,99883.69
2022-09-09T01:32:02.345Z,99885.44
2022-09-09T01:34:39.991Z,99889.03
2022-09-09T01:37:14.130Z,99883.66
2022-09-09T01:39:45.938Z,99877.06
2022-09-09T01:42:18.538Z,99889.69
2022-09-09T01:44:46.979Z,99894.03
2022-09-09T01:47:16.664Z,99894.47
2022-09-09T01:50:00.611Z,99898.50
2022-09-09T01:52:32.666Z,99901.78
2022-09-09T01:55:00.634Z,99911.19
2022-09-09T01:58:10.489Z,99903.00
2022-09-09T02:00:55.489Z,99906.59
2022-09-09T02:03:29.482Z,99912.66
2022-09-09T02:06:11.916Z,99919.63
2022-09-09T02:08:48.239Z,99915.59
2022-09-09T02:11:23.285Z,99924.56
2022-09-09T02:14:17.104Z,99909.81
2022-09-09T02:17:10.542Z,99905.56
2022-09-09T02:20:13.940Z,99907.88
2022-09-09T02:23:11.110Z,99911.59
2022-09-09T02:25:40.185Z,99911.41
2022-09-09T02:28:22.328Z,99914.72
2022-09-09T02:30:56.222Z,99920.06
2022-09-09T02:33:41.185Z,99913.06
2022-09-09T02:36:11.982Z,99913.94
2022-09-09T02:38:51.601Z,99914.81
2022-09-09T02:41:31.747Z,99901.44
2022-09-09T02:43:59.591Z,99896.97
2022-09-09T02:47:05.805Z,99889.72
2022-09-09T02:49:50.575Z,99890.06
2022-09-09T02:52:49.222Z,99887.00
2022-09-09T02:55:56.576Z,99883.72
2022-09-09T02:58:25.192Z,99885.13
2022-09-09T03:00:59.284Z,99882.94
2022-09-09T03:03:28.149Z,99886.66
2022-09-09T03:05:57.950Z,99883.06
2022-09-09T03:08:28.666Z,99884.13
2022-09-09T03:11:02.384Z,99880.19
2022-09-09T03:13:33.235Z,99882.50
2022-09-09T03:16:00.937Z,99874.59
2022-09-09T03:18:31.347Z,99890.59
2022-09-09T03:21:00.621Z,99884.00
2022-09-09T03:23:29.117Z,99895.22
2022-09-09T03:25:59.747Z,99899.72
2022-09-09T03:28:36.839Z,99904.63
2022-09-09T03:31:06.668Z,99913.84
2022-09-09T03:33:39.937Z,99922.16
2022-09-09T03:36:09.562Z,99917.66
2022-09-09T03:38:37.440Z,99923.34
2022-09-09T03:41:08.845Z,99936.22
2022-09-09T03:43:37.485Z,99934.88
2022-09-09T03:46:05.892Z,99937.50
2022-09-09T03:48:33.860Z,99940.78
2022-09-09T03:51:02.491Z,99946.34
2022-09-09T03:53:32.978Z,99958.91
2022-09-09T03:56:01.757Z,99958.78
2022-09-09T03:58:31.449Z,99969.91
2022-09-09T04:01:15.834Z,99976.66
2022-09-09T04:03:45.757Z,99990.34
2022-09-09T04:06:15.723Z,99997.47
2022-09-09T04:08:46.292Z,100019.41
2022-09-09T04:11:17.031Z,100012.13
2022-09-09T04:13:45.965Z,100018.69
2022-09-09T04:16:15.793Z,100019.19
2022-09-09T04:18:45.354Z,100022.66
2022-09-09T04:21:16.414Z,100029.69
2022-09-09T04:23:44.024Z,100034.81
2022-09-09T04:26:12.081Z,100030.72
2022-09-09T04:28:40.466Z,100028.75
2022-09-09T04:31:21.226Z,100031.03
2022-09-09T04:33:53.894Z,100036.81
2022-09-09T04:36:22.641Z,100040.28
2022-09-09T04:38:52.691Z,100038.09
2022-09-09T04:41:20.761Z,100039.38
2022-09-09T04:43:53.320Z,100029.28
2022-09-09T04:46:23.921Z,100022.66
2022-09-09T04:48:53.762Z,100023.44
2022-09-09T04:51:23.664Z,100033.94
2022-09-09T04:53:55.065Z,100021.97
2022-09-09T04:56:23.114Z,100020.06
2022-09-09T04:58:56.846Z,100010.47
2022-09-09T05:01:33.359Z,100012.84
2022-09-09T05:04:04.905Z,100009.69
2022-09-09T05:06:34.738Z,100012.84
2022-09-09T05:09:02.931Z,100015.91
2022-09-09T05:11:37.017Z,100008.09
2022-09-09T05:14:13.178Z,100015.50
2022-09-09T05:16:42.009Z,100013.88
2022-09-09T05:19:10.044Z,100020.41
2022-09-09T05:21:45.201Z,100025.31
2022-09-09T05:24:13.840Z,100032.28
2022-09-09T05:26:42.469Z,100030.19
2022-09-09T05:29:10.243Z,100043.84
2022-09-09T05:31:38.131Z,100037.28
2022-09-09T05:34:10.768Z,100040.06
2022-09-09T05:36:38.665Z,100040.69
2022-09-09T05:39:07.191Z,100030.78
2022-09-09T05:41:37.017Z,100031.78
2022-09-09T05:44:06.552Z,100017.34
2022-09-09T05:46:39.213Z,100006.50
2022-09-09T05:49:07.347Z,100004.50
2022-09-09T05:51:36.240Z,100017.16
2022-09-09T05:54:08.898Z,100009.31
2022-09-09T05:56:41.157Z,100001.63
2022-09-09T05:59:10.277Z,99992.22
2022-09-09T06:01:43.370Z,99999.94
2022-09-09T06:04:19.469Z,100000.63
2022-09-09T06:06:47.186Z,99991.97
2022-09-09T06:09:18.563Z,99975.00
2022-09-09T06:11:46.724Z,99971.34
2022-09-09T06:14:15.817Z,99970.84
2022-09-09T06:16:47.196Z,99973.44
2022-09-09T06:19:20.662Z,99970.13
2022-09-09T06:21:50.134Z,99978.97
2022-09-09T06:24:20.403Z,99975.38
2022-09-09T06:26:48.064Z,99972.47
2022-09-09T06:29:22.107Z,99967.09
2022-09-09T06:31:50.073Z,99974.28
2022-09-09T06:34:22.652Z,99971.31
2022-09-09T06:36:58.839Z,99962.41
2022-09-09T06:39:33.863Z,99966.09
2022-09-09T06:42:01.928Z,99965.47
2022-09-09T06:44:51.403Z,99971.63
2022-09-09T06:47:28.924Z,99970.44
2022-09-09T06:49:59.439Z,99981.72
2022-09-09T06:52:27.712Z,99983.22
2022-09-09T06:54:59.053Z,99997.25
2022-09-09T06:57:36.972Z,100024.25
2022-09-09T07:00:10.582Z,100023.78
2022-09-09T07:02:40.131Z,100031.81
2022-09-09T07:05:09.511Z,100034.25
2022-09-09T07:07:37.915Z,100047.94
2022-09-09T07:10:06.812Z,100050.84
2022-09-09T07:12:38.735Z,100061.88
2022-09-09T07:15:10.826Z,100059.84
2022-09-09T07:17:40.564Z,100052.94
2022-09-09T07:20:08.853Z,100056.03
2022-09-09T07:22:36.420Z,100054.97
2022-09-09T07:25:05.572Z,100058.63
2022-09-09T07:27:33.423Z,100057.09
2022-09-09T07:30:01.018Z,100054.28
2022-09-09T07:32:28.926Z,100059.25
2022-09-09T07:34:57.104Z,100059.19
2022-09-09T07:37:25.412Z,100066.13
2022-09-09T07:39:54.370Z,100069.19
2022-09-09T07:42:22.040Z,100073.09
2022-09-09T07:44:50.677Z,100078.56
2022-09-09T07:47:18.411Z,100080.28
2022-09-09T07:49:50.887Z,100087.44
2022-09-09T07:52:23.772Z,100097.75
2022-09-09T07:54:57.472Z,100094.81
2022-09-09T07:57:25.648Z,100100.22
2022-09-09T07:59:54.609Z,100092.84
2022-09-09T08:02:22.515Z,100094.34
2022-09-09T08:04:52.616Z,100092.72
2022-09-09T08:07:22.528Z,100093.34
2022-09-09T08:09:56.679Z,100092.69
2022-09-09T08:12:28.877Z,100099.72
2022-09-09T08:14:58.229Z,100100.06
2022-09-09T08:17:30.095Z,100106.91
2022-09-09T08:20:04.354Z,100107.94
2022-09-09T08:22:32.351Z,100093.97
2022-09-09T08:25:01.434Z,100099.44
2022-09-09T08:27:29.033Z,100086.84
2022-09-09T08:29:57.055Z,100097.19
2022-09-09T08:32:25.123Z,100090.63
2022-09-09T08:34:54.613Z,100084.19
2022-09-09T08:37:24.713Z,100082.81
2022-09-09T08:39:54.294Z,100076.00
2022-09-09T08:42:39.172Z,100086.19
2022-09-09T08:45:36.678Z,100063.91
2022-09-09T08:48:53.365Z,100068.53
2022-09-09T08:51:22.154Z,100072.47
2022-09-09T08:53:54.485Z,100070.66
2022-09-09T08:56:27.972Z,100069.00
2022-09-09T08:59:03.870Z,100072.84
2022-09-09T09:01:54.143Z,100061.41
2022-09-09T09:05:06.002Z,100061.34
2022-09-09T09:08:25.890Z,100070.88
2022-09-09T09:10:58.562Z,100058.09
2022-09-09T09:14:06.062Z,100068.22
2022-09-09T09:16:57.313Z,100060.22
2022-09-09T09:19:27.359Z,100055.63
2022-09-09T09:22:21.150Z,100057.06
2022-09-09T09:25:19.834Z,100066.47
2022-09-09T09:28:06.941Z,100066.78
2022-09-09T09:30:58.927Z,100071.53
2022-09-09T09:33:45.551Z,100075.47
2022-09-09T09:36:16.227Z,100079.31
2022-09-09T09:41:47.219Z,100064.28
2022-09-09T09:44:32.985Z,100060.22
2022-09-09T09:47:19.672Z,100062.41
2022-09-09T09:50:00.581Z,100071.50
2022-09-09T09:52:35.663Z,100068.63
2022-09-09T09:55:13.470Z,100057.13
2022-09-09T09:57:41.635Z,100064.91
2022-09-09T10:00:19.692Z,100061.09
2022-09-09T10:02:55.301Z,100068.09
2022-09-09T10:05:35.160Z,100052.63
2022-09-09T10:08:20.787Z,100050.31
2022-09-09T10:11:32.782Z,100046.38
2022-09-09T10:14:23.221Z,100051.53
2022-09-09T10:17:21.991Z,100043.53
2022-09-09T10:20:34.412Z,100039.22
2022-09-09T10:24:08.635Z,100039.63
2022-09-09T10:27:03.679Z,100036.53
2022-09-09T10:29:46.040Z,100032.19
2022-09-09T10:32:35.245Z,100033.97
2022-09-09T10:35:20.906Z,100035.47
2022-09-09T10:38:09.649Z,100029.78
2022-09-09T10:40:56.501Z,100022.22
2022-09-09T10:43:57.406Z,100014.78
2022-09-09T10:46:55.128Z,100015.28
2022-09-09T10:49:50.731Z,100013.22
2022-09-09T10:52:36.332Z,100010.81
2022-09-09T10:55:16.234Z,100003.50
2022-09-09T10:57:56.920Z,99995.91
2022-09-09T11:00:32.049Z,100000.84
2022-09-09T11:03:05.235Z,100003.47
2022-09-09T11:05:51.096Z,100001.16
2022-09-09T11:08:31.733Z,99997.81
2022-09-09T11:11:01.042Z,100006.66
2022-09-09T11:13:38.414Z,99998.72
2022-09-09T11:17:10.176Z,99999.63
2022-09-09T11:19:42.033Z,99991.38
2022-09-09T11:22:37.702Z,99988.63
2022-09-09T11:25:20.207Z,99994.28
2022-09-09T11:27:56.886Z,99985.88
2022-09-09T11:30:51.698Z,99983.09
2022-09-09T11:33:42.604Z,99980.66
2022-09-09T11:36:35.745Z,99980.38
2022-09-09T11:39:48.978Z,99975.94
2022-09-09T11:42:25.810Z,99979.13
2022-09-09T11:44:57.938Z,99969.47
2022-09-09T11:47:31.037Z,99965.16
2022-09-09T11:50:16.674Z,99958.56
2022-09-09T11:52:49.553Z,99954.94
2022-09-09T11:55:37.206Z,99950.34
2022-09-09T11:58:16.378Z,99945.41
2022-09-09T12:00:49.851Z,99942.94
2022-09-09T12:04:23.110Z,99936.13
2022-09-09T12:06:57.178Z,99944.34
2022-09-09T12:09:47.228Z,99944.94
2022-09-09T12:12:15.196Z,99944.00
2022-09-09T12:14:42.876Z,99935.88
2022-09-09T12:17:16.210Z,99934.41
2022-09-09T12:19:44.095Z,99924.84
2022-09-09T12:22:24.277Z,99922.34
2022-09-09T12:25:20.262Z,99922.69
2022-09-09T12:28:05.708Z,99916.56
2022-09-09T12:30:57.247Z,99914.47
2022-09-09T12:33:25.818Z,99910.31
2022-09-09T12:35:58.076Z,99925.75
2022-09-09T12:38:42.440Z,99906.84
2022-09-09T12:41:26.731Z,99910.28
2022-09-09T12:44:11.150Z,99906.63
2022-09-09T12:46:46.063Z,99910.03
2022-09-09T12:49:35.394Z,99895.19
2022-09-09T12:52:22.104Z,99894.31
2022-09-09T12:54:52.216Z,99895.41
2022-09-09T12:57:20.199Z,99889.13
2022-09-09T12:59:49.177Z,99888.41
2022-09-09T13:02:29.082Z,99885.81
2022-09-09T13:05:17.969Z,99881.72
2022-09-09T13:07:45.665Z,99879.41
2022-09-09T13:10:36.668Z,99883.22
2022-09-09T13:13:36.268Z,99878.09
2022-09-09T13:16:08.254Z,99876.09
2022-09-09T13:18:41.559Z,99876.13
2022-09-09T13:21:09.448Z,99868.13
2022-09-09T13:23:39.305Z,99861.72
2022-09-09T13:26:27.929Z,99854.09
2022-09-09T13:28:56.983Z,99855.50
2022-09-09T13:31:32.720Z,99850.63
2022-09-09T13:34:01.056Z,99848.16
2022-09-09T13:36:35.853Z,99850.91
2022-09-09T13:39:05.200Z,99840.13
2022-09-09T13:41:35.874Z,99847.53
2022-09-09T13:44:07.601Z,99848.84
2022-09-09T13:46:43.435Z,99853.09
2022-09-09T13:49:11.121Z,99849.50
2022-09-09T13:52:13.006Z,99847.03
2022-09-09T13:54:42.865Z,99839.25
2022-09-09T13:57:26.301Z,99857.16
2022-09-09T14:00:06.316Z,99848.50
2022-09-09T14:02:34.934Z,99837.44
2022-09-09T14:05:02.799Z,99845.22
2022-09-09T14:07:30.459Z,99834.84
2022-09-09T14:09:58.272Z,99827.94
2022-09-09T14:12:25.934Z,99826.44
2022-09-09T14:14:53.403Z,99829.31
2022-09-09T14:17:21.148Z,99821.41
2022-09-09T14:19:48.743Z,99815.53
2022-09-09T14:22:16.255Z,99813.63
2022-09-09T14:24:44.042Z,99823.25
2022-09-09T14:27:11.654Z,99820.47
2022-09-09T14:29:39.168Z,99812.69
2022-09-09T14:32:11.954Z,99812.47
2022-09-09T14:34:40.186Z,99807.69
2022-09-09T14:37:07.957Z,99809.94
2022-09-09T14:39:35.468Z,99811.22
2022-09-09T14:42:03.381Z,99807.66
2022-09-09T14:44:31.148Z,99807.09
2022-09-09T14:46:59.593Z,99807.06
2022-09-09T14:49:26.895Z,99809.06
2022-09-09T14:51:55.317Z,99800.97
2022-09-09T14:54:24.031Z,99801.91
2022-09-09T14:56:51.537Z,99797.31
2022-09-09T14:59:19.250Z,99789.63
2022-09-09T15:01:46.810Z,99793.84
2022-09-09T15:04:21.413Z,99791.47
2022-09-09T15:06:50.844Z,99781.53
2022-09-09T15:09:18.296Z,99784.25
2022-09-09T15:11:46.132Z,99783.69
2022-09-09T15:14:13.965Z,99788.50
2022-09-09T15:16:41.814Z,99788.50
2022-09-09T15:19:10.293Z,99786.94
2022-09-09T15:21:39.472Z,99792.19
2022-09-09T15:24:09.442Z,99789.53
2022-09-09T15:26:39.502Z,99785.19
2022-09-09T15:29:09.098Z,99788.38
2022-09-09T15:31:38.285Z,99793.22
2022-09-09T15:34:08.462Z,99789.25
2022-09-09T15:36:36.075Z,99782.66
2022-09-09T15:39:08.073Z,99783.66
2022-09-09T15:41:35.733Z,99781.63
2022-09-09T15:44:03.708Z,99781.34
2022-09-09T15:46:39.938Z,99781.31
2022-09-09T15:49:10.321Z,99789.69
2022-09-09T15:51:43.507Z,99781.78
2022-09-09T15:54:18.502Z,99778.16
2022-09-09T15:56:49.816Z,99788.28
2022-09-09T15:59:17.657Z,99786.16
2022-09-09T16:01:45.447Z,99790.13
2022-09-09T16:04:13.196Z,99794.06
2022-09-09T16:06:41.185Z,99779.00
2022-09-09T16:09:09.319Z,99783.25
2022-09-09T16:11:39.196Z,99779.34
2022-09-09T16:14:07.684Z,99775.94
2022-09-09T16:16:36.306Z,99778.13
2022-09-09T16:19:12.542Z,99784.94
2022-09-09T16:21:47.512Z,99792.75
2022-09-09T16:24:19.607Z,99792.22
2022-09-09T16:26:55.377Z,99799.81
2022-09-09T16:29:24.899Z,99796.47
2022-09-09T16:31:52.870Z,99801.53
2022-09-09T16:34:20.821Z,99798.81
2022-09-09T16:36:49.552Z,99799.75
2022-09-09T16:39:21.711Z,99797.75
2022-09-09T16:41:51.090Z,99795.38
2022-09-09T16:44:20.460Z,99789.34
2022-09-09T16:46:56.678Z,99783.47
2022-09-09T16:49:29.231Z,99782.56
2022-09-09T16:51:59.870Z,99776.38
2022-09-09T16:54:28.103Z,99788.63
2022-09-09T16:56:56.224Z,99776.66
2022-09-09T16:59:24.541Z,99771.81
2022-09-09T17:01:53.308Z,99768.97
2022-09-09T17:04:26.428Z,99770.66
2022-09-09T17:06:55.844Z,99770.59
2022-09-09T17:09:29.753Z,99770.38
2022-09-09T17:11:57.701Z,99766.16
2022-09-09T17:14:25.527Z,99769.22
2022-09-09T17:16:53.288Z,99767.88
2022-09-09T17:19:21.061Z,99764.06
2022-09-09T17:24:39.402Z,99759.31
2022-09-09T17:27:08.068Z,99760.06
2022-09-09T17:29:37.069Z,99769.09
2022-09-09T17:32:06.438Z,99761.44
2022-09-09T17:34:35.706Z,99758.22
2022-09-09T17:37:05.212Z,99762.81
2022-09-09T17:39:33.309Z,99750.28
2022-09-09T17:42:01.059Z,99749.34
2022-09-09T17:44:29.909Z,99747.94
2022-09-09T17:46:57.483Z,99752.81
2022-09-09T17:49:25.180Z,99759.97
2022-09-09T17:51:52.798Z,99765.91
2022-09-09T17:54:21.239Z,99775.38
2022-09-09T17:56:50.044Z,99776.56
2022-09-09T17:59:19.437Z,99790.78
2022-09-09T18:01:49.630Z,99795.50
2022-09-09T18:04:19.101Z,99800.69
2022-09-09T18:06:51.086Z,99800.69
2022-09-09T18:09:23.543Z,99799.94
2022-09-09T18:11:58.067Z,99808.91
2022-09-09T18:14:31.138Z,99796.88
2022-09-09T18:17:00.740Z,99796.41
2022-09-09T18:19:32.894Z,99798.06
2022-09-09T18:22:02.771Z,99801.56
2022-09-09T18:24:31.476Z,99804.31
2022-09-09T18:26:59.086Z,99795.78
2022-09-09T18:29:26.816Z,99790.59
2022-09-09T18:31:55.740Z,99794.13
2022-09-09T18:34:25.976Z,99802.81
2022-09-09T18:36:55.814Z,99819.28
2022-09-09T18:39:29.901Z,99820.19
2022-09-09T18:42:01.388Z,99818.66
2022-09-09T18:44:33.944Z,99817.13
2022-09-09T18:47:01.912Z,99819.28
2022-09-09T18:49:30.195Z,99821.25
2022-09-09T18:51:57.937Z,99820.81
2022-09-09T18:54:30.196Z,99811.34
2022-09-09T18:57:00.780Z,99813.66
2022-09-09T18:59:28.463Z,99819.16
2022-09-09T19:01:56.262Z,99813.66
2022-09-09T19:04:27.273Z,99819.16
2022-09-09T19:06:58.952Z,99821.91
2022-09-09T19:09:31.638Z,99838.38
2022-09-09T19:12:01.260Z,99833.47
2022-09-09T19:14:30.056Z,99835.13
2022-09-09T19:16:57.977Z,99832.97
2022-09-09T19:19:30.639Z,99841.47
2022-09-09T19:21:59.163Z,99834.56
2022-09-09T19:24:30.673Z,99833.31
2022-09-09T19:27:05.652Z,99837.88
2022-09-09T19:29:36.838Z,99846.81
2022-09-09T19:32:52.237Z,99854.22
2022-09-09T19:35:11.220Z,99853.03
2022-09-09T19:37:39.102Z,99855.41
2022-09-09T19:40:08.185Z,99855.56
2022-09-09T19:42:35.937Z,99861.50
2022-09-09T19:45:03.893Z,99845.00
2022-09-09T19:47:31.359Z,99842.84
2022-09-09T19:49:59.069Z,99834.41
2022-09-09T19:52:26.873Z,99832.78
2022-09-09T19:54:55.047Z,99825.44
2022-09-09T19:57:23.727Z,99824.56
2022-09-09T19:59:51.159Z,99824.75
2022-09-09T20:02:18.741Z,99828.28
2022-09-09T20:04:46.530Z,99822.13
2022-09-09T20:07:15.005Z,99820.38
2022-09-09T20:09:42.802Z,99817.75
2022-09-09T20:12:10.612Z,99839.78
2022-09-09T20:14:39.886Z,99838.38
2022-09-09T20:17:10.089Z,99833.75
2022-09-09T20:19:39.751Z,99827.59
2022-09-09T20:22:07.405Z,99826.81
2022-09-09T20:24:36.425Z,99833.97
2022-09-09T20:27:04.417Z,99829.25
2022-09-09T20:29:31.829Z,99830.31
2022-09-09T20:31:59.289Z,99819.72
2022-09-09T20:34:28.470Z,99809.44
2022-09-09T20:36:59.041Z,99796.84
2022-09-09T20:39:27.858Z,99803.97
2022-09-09T20:41:55.414Z,99801.25
2022-09-09T20:44:24.824Z,99800.22
2022-09-09T20:47:02.758Z,99804.50
2022-09-09T20:49:30.584Z,99825.28
2022-09-09T20:51:58.101Z,99828.81
2022-09-09T20:54:28.090Z,99832.41
2022-09-09T20:56:56.322Z,99823.09
2022-09-09T20:59:26.971Z,99819.72
2022-09-09T21:01:56.882Z,99825.63
2022-09-09T21:04:26.148Z,99823.41
2022-09-09T21:06:53.994Z,99834.03
2022-09-09T21:09:24.671Z,99828.25
2022-09-09T21:11:53.696Z,99822.78
2022-09-09T21:14:22.370Z,99824.28
2022-09-09T21:16:50.297Z,99815.00
2022-09-09T21:19:18.690Z,99815.09
2022-09-09T21:21:47.760Z,99812.47
2022-09-09T21:24:15.671Z,99816.19
2022-09-09T21:26:43.522Z,99813.63
2022-09-09T21:29:11.214Z,99806.31
2022-09-09T21:31:38.796Z,99793.28
2022-09-09T21:34:07.229Z,99799.19
2022-09-09T21:36:34.777Z,99792.38
2022-09-09T21:39:02.259Z,99781.09
2022-09-09T21:41:30.218Z,99786.19
2022-09-09T21:43:57.797Z,99793.72
2022-09-09T21:46:27.139Z,99786.72
2022-09-09T21:48:58.135Z,99783.97
2022-09-09T21:51:26.847Z,99768.78
2022-09-09T21:53:57.587Z,99773.41
2022-09-09T21:56:26.865Z,99778.44
2022-09-09T21:58:58.606Z,99774.47
2022-09-09T22:01:26.857Z,99781.25
2022-09-09T22:03:54.662Z,99781.78
2022-09-09T22:06:22.281Z,99788.78
2022-09-09T22:08:50.082Z,99785.19
2022-09-09T22:11:23.076Z,99785.19
2022-09-09T22:13:52.735Z,99787.06
2022-09-09T22:16:23.492Z,99790.47
2022-09-09T22:18:59.074Z,99784.81
2022-09-09T22:21:31.021Z,99791.28
2022-09-09T22:24:04.654Z,99796.88
2022-09-09T22:26:36.383Z,99800.72
2022-09-09T22:29:06.925Z,99794.41
2022-09-09T22:31:35.232Z,99799.75
2022-09-09T22:34:03.633Z,99797.69
2022-09-09T22:36:31.928Z,99797.34
2022-09-09T22:39:00.042Z,99798.53
2022-09-09T22:41:30.048Z,99791.19
2022-09-09T22:43:59.130Z,99794.03
2022-09-09T22:46:26.859Z,99788.25
2022-09-09T22:48:54.548Z,99781.25
2022-09-09T22:51:22.322Z,99777.63
2022-09-09T22:53:50.088Z,99762.00
2022-09-09T22:56:20.208Z,99760.03
2022-09-09T22:58:52.501Z,99758.59
2022-09-09T23:01:20.993Z,99761.88
2022-09-09T23:03:50.929Z,99751.91
2022-09-09T23:06:24.782Z,99747.41
2022-09-09T23:08:56.618Z,99739.25
2022-09-09T23:11:34.602Z,99739.81
2022-09-09T23:14:05.144Z,99732.56
2022-09-09T23:16:39.728Z,99738.94
2022-09-09T23:19:11.597Z,99727.31
2022-09-09T23:21:40.984Z,99723.50
2022-09-09T23:24:12.031Z,99745.78
2022-09-09T23:26:41.798Z,99738.00
2022-09-09T23:29:14.861Z,99740.41
2022-09-09T23:31:46.390Z,99740.06
2022-09-09T23:34:16.002Z,99740.41
2022-09-09T23:36:43.956Z,99744.44
2022-09-09T23:39:13.283Z,99733.84
2022-09-09T23:41:41.263Z,99745.09
2022-09-09T23:44:09.024Z,99747.41
2022-09-09T23:46:36.614Z,99754.31
2022-09-09T23:49:23.506Z,99759.25
2022-09-09T23:51:51.008Z,99767.78
2022-09-09T23:54:18.990Z,99766.06
2022-09-09T23:56:46.864Z,99762.78
2022-09-09T23:59:14.326Z,99774.41
